Terminal Aerodrome Forecast
Issued by NWS Newport/Morehead City, NC

Home | Current Version | Previous Version | Graphics & Text | Print | Product List | Glossary On
Versions: 1 2 3 4 5 6 7 8 9 10 11 12 13 14 15 16 17 18 19
000
FTUS42 KMHX 191400 AAA
TAFEWN
TAF AMD
KEWN 191417Z 1914/2012 04007KT P6SM VCSH BKN015 BKN022 OVC035
     FM191800 04007KT P6SM VCSH BKN035
     FM192200 02006KT P6SM SCT100
     FM200800 00000KT 2SM BR BKN004=

USA.gov is the U.S. government's official web portal to all federal, state and local government web resources and services.